Campus, New Mexico
Current Conditions -  °F | °C
As of 7:15 PM on Thursday 18 Dec 2014 (Local Time) from KONM Reporting Station
Overcast Overcast  
Wind Chill: 33°   Ceiling: 8000
Heat Index: 38°   Visibility: 10mi
Dew Point: 37°   Wind: 7mph
Humidity: 95%   Direction: 320°NW
Pressure: 30.13"   Gusts: NA
Location:  33.8946°N, 106.565°W
Report Text: KONM 190215Z AUTO 32006KT 10SM SCT048 SCT060 OVC080 03/03 A3013 RMK AO2 T00340027
Loading
Personal Weather Stations






























Interactive Weather Map New forecast layout! Learn more

10-Day Weather Forecast

Advertisements
Track Severe Weather on mobile